createdAt,value
2016-11-16T00:00:37.657Z,7.18
2016-11-16T00:01:52.302Z,7.26
2016-11-16T00:03:07.353Z,7.25
2016-11-16T00:04:21.756Z,7.32
2016-11-16T00:05:36.675Z,7.26
2016-11-16T00:06:51.136Z,7.26
2016-11-16T00:08:05.561Z,7.26
2016-11-16T00:09:19.820Z,7.23
2016-11-16T00:10:34.223Z,7.23
2016-11-16T00:11:49.786Z,7.26
2016-11-16T00:13:04.989Z,7.29
2016-11-16T00:14:19.796Z,7.31
2016-11-16T00:15:34.560Z,7.29
2016-11-16T00:16:49.569Z,7.31
2016-11-16T00:18:04.984Z,7.37
2016-11-16T00:19:19.709Z,7.33
2016-11-16T00:20:34.095Z,7.37
2016-11-16T00:21:48.224Z,7.39
2016-11-16T00:23:03.018Z,7.43
2016-11-16T00:24:17.761Z,7.44
2016-11-16T00:25:32.176Z,7.37
2016-11-16T00:26:46.580Z,7.47
2016-11-16T00:28:00.946Z,7.37
2016-11-16T00:29:15.340Z,7.47
2016-11-16T00:30:30.706Z,7.37
2016-11-16T00:31:44.972Z,7.26
2016-11-16T00:33:13.782Z,7.44
2016-11-16T00:34:27.971Z,7.28
2016-11-16T00:35:42.879Z,7.31
2016-11-16T00:36:57.044Z,7.36
2016-11-16T00:38:11.365Z,7.29
2016-11-16T00:39:25.799Z,7.32
2016-11-16T00:40:40.050Z,7.4
2016-11-16T00:41:55.042Z,7.39
2016-11-16T00:43:09.429Z,7.36
2016-11-16T00:44:24.076Z,7.28
2016-11-16T00:45:38.621Z,7.29
2016-11-16T00:46:52.985Z,7.33
2016-11-16T00:48:07.451Z,7.33
2016-11-16T00:49:22.160Z,7.32
2016-11-16T00:50:37.267Z,7.31
2016-11-16T00:51:51.793Z,7.28
2016-11-16T00:53:06.658Z,7.4
2016-11-16T00:54:25.811Z,7.4
2016-11-16T00:55:45.103Z,7.43
2016-11-16T00:57:00.023Z,7.41
2016-11-16T00:58:14.933Z,7.37
2016-11-16T00:59:29.626Z,7.37
2016-11-16T01:00:44.620Z,7.47
2016-11-16T01:01:59.316Z,7.4
2016-11-16T01:03:14.908Z,7.43
2016-11-16T01:04:29.985Z,7.46
2016-11-16T01:10:58.229Z,7.47
2016-11-16T01:12:12.911Z,7.44
2016-11-16T01:13:28.456Z,7.44
2016-11-16T01:14:42.730Z,7.44
2016-11-16T01:15:57.141Z,7.4
2016-11-16T01:17:11.841Z,7.32
2016-11-16T01:18:26.598Z,7.43
2016-11-16T01:19:41.307Z,7.4
2016-11-16T01:20:55.862Z,7.36
2016-11-16T01:22:10.187Z,7.44
2016-11-16T01:23:25.039Z,7.4
2016-11-16T01:24:39.856Z,7.5
2016-11-16T01:25:54.676Z,7.46
2016-11-16T01:27:08.978Z,7.48
2016-11-16T01:28:23.627Z,7.43
2016-11-16T01:29:37.945Z,7.29
2016-11-16T01:30:52.672Z,7.43
2016-11-16T01:32:07.410Z,7.39
2016-11-16T01:33:21.593Z,7.4
2016-11-16T01:34:35.881Z,7.46
2016-11-16T01:35:50.124Z,7.46
2016-11-16T01:37:05.600Z,7.44
2016-11-16T01:38:19.703Z,7.44
2016-11-16T01:39:34.079Z,7.48
2016-11-16T01:42:49.691Z,7.4
2016-11-16T01:44:04.715Z,7.47
2016-11-16T01:45:20.250Z,7.53
2016-11-16T01:47:16.965Z,7.46
2016-11-16T01:48:31.940Z,7.39
2016-11-16T01:50:23.638Z,7.56
2016-11-16T01:51:37.974Z,7.43
2016-11-16T01:52:52.513Z,7.48
2016-11-16T01:56:17.634Z,7.55
2016-11-16T01:57:32.441Z,7.51
2016-11-16T01:59:19.430Z,7.56
2016-11-16T02:00:34.711Z,7.62
2016-11-16T02:01:49.629Z,7.61
2016-11-16T02:03:04.325Z,7.59
2016-11-16T02:04:18.667Z,7.62
2016-11-16T02:05:32.923Z,7.67
2016-11-16T02:06:47.540Z,7.7
2016-11-16T02:08:01.887Z,7.67
2016-11-16T02:09:16.752Z,7.69
2016-11-16T02:11:13.350Z,7.64
2016-11-16T02:12:40.891Z,7.64
2016-11-16T02:13:55.305Z,7.61
2016-11-16T02:15:10.189Z,7.66
2016-11-16T02:16:24.958Z,7.59
2016-11-16T02:17:39.519Z,7.61
2016-11-16T02:18:54.227Z,7.66
2016-11-16T02:20:08.670Z,7.59
2016-11-16T02:21:22.992Z,7.58
2016-11-16T02:22:37.594Z,7.61
2016-11-16T02:23:51.742Z,7.61
2016-11-16T02:25:06.387Z,7.61
2016-11-16T02:26:20.996Z,7.58
2016-11-16T02:28:49.886Z,7.56
2016-11-16T02:30:04.292Z,7.47
2016-11-16T02:31:18.949Z,7.5
2016-11-16T02:32:33.433Z,7.51
2016-11-16T02:33:48.160Z,7.46
2016-11-16T02:35:05.148Z,7.53
2016-11-16T02:36:20.017Z,7.48
2016-11-16T02:39:04.341Z,7.51
2016-11-16T02:40:19.524Z,7.4
2016-11-16T02:41:33.979Z,7.51
2016-11-16T02:42:48.739Z,7.58
2016-11-16T02:44:03.629Z,7.55
2016-11-16T02:45:37.641Z,7.46
2016-11-16T02:46:52.175Z,7.47
2016-11-16T02:48:06.906Z,7.5
2016-11-16T02:49:21.518Z,7.51
2016-11-16T02:50:36.031Z,7.46
2016-11-16T02:51:50.504Z,7.5
2016-11-16T02:53:05.693Z,7.51
2016-11-16T02:54:20.616Z,7.56
2016-11-16T02:55:36.206Z,7.61
2016-11-16T02:56:50.572Z,7.51
2016-11-16T02:58:04.926Z,7.51
2016-11-16T02:59:34.360Z,7.5
2016-11-16T03:02:29.941Z,7.53
2016-11-16T03:04:41.656Z,7.44
2016-11-16T03:07:32.150Z,7.47
2016-11-16T03:08:47.168Z,7.59
2016-11-16T03:10:21.020Z,7.59
2016-11-16T03:11:36.143Z,7.59
2016-11-16T03:12:50.758Z,7.61
2016-11-16T03:14:05.259Z,7.62
2016-11-16T03:15:19.785Z,7.58
2016-11-16T03:16:34.401Z,7.59
2016-11-16T03:17:49.257Z,7.59
2016-11-16T03:19:04.000Z,7.61
2016-11-16T03:20:19.008Z,7.61
2016-11-16T03:21:33.705Z,7.55
2016-11-16T03:23:07.733Z,7.56
2016-11-16T03:24:22.242Z,7.67
2016-11-16T03:25:36.897Z,7.64
2016-11-16T03:26:52.055Z,7.62
2016-11-16T03:28:06.800Z,7.66
2016-11-16T03:29:21.525Z,7.62
2016-11-16T03:30:36.360Z,7.61
2016-11-16T03:31:52.121Z,7.61
2016-11-16T03:33:06.682Z,7.59
2016-11-16T03:34:21.170Z,7.56
2016-11-16T03:35:35.802Z,7.58
2016-11-16T03:36:50.444Z,7.62
2016-11-16T03:38:11.374Z,7.58
2016-11-16T03:39:26.589Z,7.59
2016-11-16T03:40:41.325Z,7.75
2016-11-16T03:41:56.102Z,7.78
2016-11-16T03:43:10.851Z,7.72
2016-11-16T03:44:25.053Z,7.64
2016-11-16T03:46:05.483Z,7.75
2016-11-16T03:47:19.830Z,7.72
2016-11-16T03:48:35.289Z,7.69
2016-11-16T03:49:49.638Z,7.61
2016-11-16T03:51:04.739Z,7.67
2016-11-16T03:52:19.843Z,7.62
2016-11-16T03:53:34.391Z,7.64
2016-11-16T03:54:49.189Z,7.59
2016-11-16T03:56:03.648Z,7.58
2016-11-16T03:57:46.819Z,7.59
2016-11-16T03:59:01.263Z,7.62
2016-11-16T04:00:31.250Z,7.75
2016-11-16T04:02:05.620Z,7.58
2016-11-16T04:03:20.206Z,7.7
2016-11-16T04:05:51.159Z,7.66
2016-11-16T04:07:05.915Z,7.67
2016-11-16T04:08:59.954Z,7.64
2016-11-16T04:10:14.456Z,7.7
2016-11-16T04:12:57.726Z,7.66
2016-11-16T04:14:13.437Z,7.64
2016-11-16T04:15:28.640Z,7.7
2016-11-16T04:16:43.263Z,7.66
2016-11-16T04:18:08.787Z,7.69
2016-11-16T04:19:23.779Z,7.64
2016-11-16T04:20:39.081Z,7.66
2016-11-16T04:21:54.132Z,7.77
2016-11-16T04:23:09.575Z,7.7
2016-11-16T04:24:24.655Z,7.67
2016-11-16T04:25:59.005Z,7.72
2016-11-16T04:27:14.230Z,7.7
2016-11-16T04:28:29.778Z,7.64
2016-11-16T04:29:44.166Z,7.67
2016-11-16T04:30:59.602Z,7.81
2016-11-16T04:32:15.138Z,7.66
2016-11-16T04:33:30.033Z,7.75
2016-11-16T04:34:50.827Z,7.72
2016-11-16T04:36:11.854Z,7.66
2016-11-16T04:37:33.290Z,7.78
2016-11-16T04:38:56.598Z,7.81
2016-11-16T04:40:52.071Z,7.8
2016-11-16T04:42:11.573Z,7.77
2016-11-16T04:44:20.426Z,7.81
2016-11-16T04:45:36.099Z,7.81
2016-11-16T04:46:50.913Z,7.78
2016-11-16T04:52:31.777Z,7.7
2016-11-16T04:53:46.409Z,7.75
2016-11-16T04:55:01.093Z,7.66
2016-11-16T04:56:15.915Z,7.81
2016-11-16T04:57:30.862Z,7.75
2016-11-16T04:58:46.194Z,7.81
2016-11-16T05:00:20.218Z,7.77
2016-11-16T05:01:35.527Z,7.81
2016-11-16T05:03:05.120Z,7.74
2016-11-16T05:04:19.453Z,7.72
2016-11-16T05:05:34.026Z,7.81
2016-11-16T05:07:07.714Z,7.74
2016-11-16T05:08:22.769Z,7.85
2016-11-16T05:09:37.983Z,7.83
2016-11-16T05:10:52.669Z,8.01
2016-11-16T05:12:07.744Z,7.87
2016-11-16T05:14:20.069Z,7.96
2016-11-16T05:15:34.861Z,7.95
2016-11-16T05:16:49.611Z,8.01
2016-11-16T05:18:04.466Z,7.99
2016-11-16T05:19:19.088Z,7.83
2016-11-16T05:20:53.370Z,7.83
2016-11-16T05:22:11.693Z,7.75
2016-11-16T05:23:26.417Z,7.64
2016-11-16T05:24:53.616Z,7.83
2016-11-16T05:26:08.314Z,8.36
2016-11-16T05:28:51.651Z,8.75
2016-11-16T05:31:13.035Z,8.35
2016-11-16T05:32:53.544Z,8.24
2016-11-16T05:34:08.407Z,8.21
2016-11-16T05:38:36.078Z,7.99
2016-11-16T05:39:51.200Z,7.9
2016-11-16T05:42:03.789Z,7.98
2016-11-16T05:43:18.283Z,7.98
2016-11-16T05:44:33.751Z,7.87
2016-11-16T05:46:52.872Z,7.88
2016-11-16T05:48:07.920Z,7.84
2016-11-16T05:49:22.799Z,7.84
2016-11-16T05:50:38.039Z,7.96
2016-11-16T05:53:09.882Z,7.98
2016-11-16T05:54:24.572Z,8.01
2016-11-16T05:55:39.311Z,7.98
2016-11-16T05:56:54.333Z,7.93
2016-11-16T05:58:09.239Z,7.95
2016-11-16T05:59:54.031Z,8.02
2016-11-16T06:01:10.166Z,8.05
2016-11-16T06:02:24.790Z,8.03
2016-11-16T06:03:40.820Z,7.99
2016-11-16T06:05:28.147Z,7.95
2016-11-16T06:06:43.001Z,7.95
2016-11-16T06:08:08.194Z,7.88
2016-11-16T06:09:23.219Z,7.95
2016-11-16T06:10:37.731Z,7.91
2016-11-16T06:12:50.255Z,7.95
2016-11-16T06:14:05.284Z,7.96
2016-11-16T06:15:20.339Z,7.88
2016-11-16T06:23:17.652Z,7.99
2016-11-16T06:24:33.171Z,8.06
2016-11-16T06:25:48.418Z,8.02
2016-11-16T06:27:03.308Z,8.05
2016-11-16T06:28:37.073Z,7.9
2016-11-16T06:29:52.637Z,7.91
2016-11-16T06:31:07.361Z,7.96
2016-11-16T06:32:22.115Z,7.98
2016-11-16T06:33:51.725Z,8.02
2016-11-16T06:35:06.683Z,7.99
2016-11-16T06:37:18.777Z,8.03
2016-11-16T06:38:33.665Z,8.09
2016-11-16T06:43:15.379Z,8.2
2016-11-16T06:44:40.708Z,8.18
2016-11-16T06:45:54.886Z,8.18
2016-11-16T06:47:09.220Z,8.23
2016-11-16T06:48:23.894Z,8.17
2016-11-16T06:51:43.914Z,8.31
2016-11-16T06:52:59.567Z,8.26
2016-11-16T06:56:59.543Z,8.17
2016-11-16T06:59:40.745Z,8.21
2016-11-16T07:00:55.169Z,8.21
2016-11-16T07:02:09.907Z,8.18
2016-11-16T07:03:37.730Z,8.21
2016-11-16T07:04:52.535Z,8.23
2016-11-16T07:06:39.415Z,8.21
2016-11-16T07:07:54.823Z,8.21
2016-11-16T07:09:09.254Z,8.13
2016-11-16T07:10:56.646Z,8.27
2016-11-16T07:12:11.298Z,8.21
2016-11-16T07:13:25.721Z,8.09
2016-11-16T07:14:40.077Z,8.16
2016-11-16T07:16:59.389Z,8.18
2016-11-16T07:18:13.635Z,8.24
2016-11-16T07:20:14.695Z,8.17
2016-11-16T07:21:29.292Z,8.31
2016-11-16T07:23:15.731Z,8.28
2016-11-16T07:24:29.938Z,8.24
2016-11-16T07:26:28.605Z,8.21
2016-11-16T07:27:43.391Z,8.35
2016-11-16T07:28:57.981Z,8.36
2016-11-16T07:31:26.620Z,8.42
2016-11-16T07:32:41.143Z,8.5
2016-11-16T07:33:57.032Z,8.44
2016-11-16T07:35:12.353Z,8.45
2016-11-16T07:36:27.113Z,8.42
2016-11-16T07:37:41.377Z,8.42
2016-11-16T07:39:14.885Z,8.53
2016-11-16T07:40:29.833Z,8.61
2016-11-16T07:42:16.580Z,8.49
2016-11-16T07:44:02.873Z,8.41
2016-11-16T07:45:18.222Z,8.44
2016-11-16T07:46:32.925Z,8.53
2016-11-16T07:47:47.827Z,8.54
2016-11-16T07:49:02.551Z,8.59
2016-11-16T07:50:46.890Z,8.49
2016-11-16T07:52:16.458Z,8.49
2016-11-16T07:53:31.035Z,8.5
2016-11-16T07:55:47.530Z,8.56
2016-11-16T07:57:17.121Z,8.56
2016-11-16T07:59:03.795Z,8.66
2016-11-16T08:00:18.807Z,8.63
2016-11-16T08:01:33.313Z,8.59
2016-11-16T08:02:47.737Z,8.66
2016-11-16T08:04:17.095Z,8.6
2016-11-16T08:06:46.459Z,8.53
2016-11-16T08:13:11.964Z,8.6
2016-11-16T08:14:26.402Z,8.59
2016-11-16T08:15:40.876Z,8.75
2016-11-16T08:16:55.487Z,8.71
2016-11-16T08:18:10.440Z,8.61
2016-11-16T08:24:41.712Z,8.59
2016-11-16T08:25:58.813Z,8.63
2016-11-16T08:27:13.304Z,8.74
2016-11-16T08:30:15.367Z,8.78
2016-11-16T08:31:30.587Z,8.71
2016-11-16T08:32:45.260Z,8.79
2016-11-16T08:34:15.277Z,8.79
2016-11-16T08:35:29.777Z,8.77
2016-11-16T08:36:44.578Z,8.81
2016-11-16T08:37:59.559Z,8.82
2016-11-16T08:41:15.779Z,8.9
2016-11-16T08:43:05.970Z,8.95
2016-11-16T08:44:35.446Z,8.89
2016-11-16T08:45:49.953Z,8.93
2016-11-16T08:47:31.865Z,8.82
2016-11-16T08:48:46.787Z,8.82
2016-11-16T08:50:01.206Z,9
2016-11-16T08:51:16.142Z,9.03
2016-11-16T08:52:30.553Z,9.02
2016-11-16T08:53:45.228Z,9.13
2016-11-16T08:55:00.746Z,9.15
2016-11-16T08:56:18.222Z,9
2016-11-16T08:57:33.438Z,9.08
2016-11-16T09:01:18.743Z,9.03
2016-11-16T09:02:46.765Z,9.08
2016-11-16T09:04:01.768Z,9.02
2016-11-16T09:05:16.601Z,9.02
2016-11-16T09:06:31.522Z,9.09
2016-11-16T09:10:35.615Z,9.21
2016-11-16T09:11:57.145Z,9.03
2016-11-16T09:13:12.454Z,9.18
2016-11-16T09:14:46.068Z,9.13
2016-11-16T09:17:33.174Z,9.37
2016-11-16T09:18:48.632Z,9.44
2016-11-16T09:20:03.263Z,9.36
2016-11-16T09:23:47.644Z,9.37
2016-11-16T09:25:02.569Z,9.3
2016-11-16T09:26:17.280Z,9.34
2016-11-16T09:27:32.260Z,9.31
2016-11-16T09:30:44.974Z,9.33
2016-11-16T09:32:00.357Z,9.3
2016-11-16T09:33:14.738Z,9.22
2016-11-16T09:34:48.162Z,9.33
2016-11-16T09:36:02.817Z,9.27
2016-11-16T09:37:18.250Z,9.3
2016-11-16T09:39:17.148Z,9.22
2016-11-16T09:40:32.053Z,9.27
2016-11-16T09:41:46.897Z,9.33
2016-11-16T09:43:01.737Z,9.27
2016-11-16T09:44:16.569Z,9.37
2016-11-16T09:45:31.019Z,9.42
2016-11-16T09:46:45.493Z,9.42
2016-11-16T09:48:15.128Z,9.4
2016-11-16T09:49:42.450Z,9.45
2016-11-16T09:50:56.715Z,9.4
2016-11-16T09:53:11.314Z,9.54
2016-11-16T09:54:26.728Z,9.55
2016-11-16T09:55:41.429Z,9.55
2016-11-16T09:56:55.981Z,9.56
2016-11-16T09:58:11.040Z,9.54
2016-11-16T09:59:26.054Z,9.55
2016-11-16T10:00:41.926Z,9.44
2016-11-16T10:01:57.032Z,9.48
2016-11-16T10:03:11.637Z,9.47
2016-11-16T10:04:26.393Z,9.48
2016-11-16T10:05:41.307Z,9.51
2016-11-16T10:06:57.224Z,9.58
2016-11-16T10:08:12.879Z,9.49
2016-11-16T10:09:28.761Z,9.47
2016-11-16T10:10:44.482Z,9.49
2016-11-16T10:11:59.163Z,9.47
2016-11-16T10:13:14.794Z,9.45
2016-11-16T10:14:29.588Z,9.37
2016-11-16T10:15:44.492Z,9.47
2016-11-16T10:17:14.169Z,9.47
2016-11-16T10:18:28.997Z,9.45
2016-11-16T10:19:43.991Z,9.48
2016-11-16T10:20:59.277Z,9.48
2016-11-16T10:22:14.122Z,9.47
2016-11-16T10:23:29.052Z,9.56
2016-11-16T10:24:44.345Z,9.51
2016-11-16T10:25:59.110Z,9.62
2016-11-16T10:27:13.681Z,9.62
2016-11-16T10:28:28.567Z,9.55
2016-11-16T10:29:43.105Z,9.64
2016-11-16T10:30:58.001Z,9.56
2016-11-16T10:32:12.923Z,9.59
2016-11-16T10:33:27.761Z,9.51
2016-11-16T10:34:42.676Z,9.55
2016-11-16T10:35:57.158Z,9.55
2016-11-16T10:37:12.791Z,9.52
2016-11-16T10:38:27.770Z,9.51
2016-11-16T10:39:57.330Z,9.63
2016-11-16T10:41:27.158Z,9.73
2016-11-16T10:42:42.122Z,9.81
2016-11-16T10:43:57.685Z,9.72
2016-11-16T10:45:12.290Z,9.77
2016-11-16T10:46:26.814Z,9.88
2016-11-16T10:47:41.669Z,9.81
2016-11-16T10:51:29.602Z,10.05
2016-11-16T11:01:20.069Z,9.9
2016-11-16T11:02:38.555Z,10.02
2016-11-16T11:03:52.831Z,10.05
2016-11-16T11:05:07.889Z,10.05
2016-11-16T11:06:22.339Z,10.03
2016-11-16T11:07:37.104Z,10
2016-11-16T11:08:52.305Z,10
2016-11-16T11:10:06.602Z,10.09
2016-11-16T11:11:36.209Z,10
2016-11-16T11:13:22.587Z,10.06
2016-11-16T11:14:37.556Z,10.09
2016-11-16T11:20:22.419Z,10.2
2016-11-16T11:21:47.921Z,10.21
2016-11-16T11:23:02.749Z,10.17
2016-11-16T11:27:15.241Z,10.25
2016-11-16T11:28:32.086Z,10.13
2016-11-16T11:29:46.889Z,10.2
2016-11-16T11:31:01.110Z,10.23
2016-11-16T11:32:15.946Z,10.21
2016-11-16T11:33:30.501Z,10.21
2016-11-16T11:34:46.177Z,10.23
2016-11-16T11:36:00.461Z,10.36
2016-11-16T11:37:15.361Z,10.27
2016-11-16T11:38:29.746Z,10.23
2016-11-16T11:39:45.428Z,10.27
2016-11-16T11:41:01.376Z,10.36
2016-11-16T11:42:16.022Z,10.34
2016-11-16T11:43:30.749Z,10.41
2016-11-16T11:44:45.306Z,10.31
2016-11-16T11:45:59.974Z,10.34
2016-11-16T11:47:15.192Z,10.43
2016-11-16T11:48:30.053Z,10.58
2016-11-16T11:49:45.371Z,10.42
2016-11-16T11:51:00.199Z,10.36
2016-11-16T11:52:15.755Z,10.49
2016-11-16T11:53:30.532Z,10.55
2016-11-16T11:54:45.040Z,10.53
2016-11-16T11:55:59.911Z,10.49
2016-11-16T11:57:24.911Z,10.39
2016-11-16T11:58:55.215Z,10.55
2016-11-16T12:00:09.949Z,10.51
2016-11-16T12:01:24.529Z,10.57
2016-11-16T12:02:38.870Z,10.55
2016-11-16T12:03:53.862Z,10.58
2016-11-16T12:05:09.032Z,10.61
2016-11-16T12:06:24.765Z,10.62
2016-11-16T12:07:39.410Z,10.51
2016-11-16T12:08:54.483Z,10.55
2016-11-16T12:10:09.096Z,10.59
2016-11-16T12:11:23.950Z,10.49
2016-11-16T12:12:38.965Z,10.46
2016-11-16T12:13:53.582Z,10.61
2016-11-16T12:15:08.769Z,10.68
2016-11-16T12:16:23.423Z,10.75
2016-11-16T12:17:38.469Z,10.82
2016-11-16T12:18:53.884Z,10.82
2016-11-16T12:20:08.601Z,10.84
2016-11-16T12:21:23.937Z,10.94
2016-11-16T12:22:39.191Z,10.94
2016-11-16T12:23:53.977Z,10.87
2016-11-16T12:25:08.954Z,10.83
2016-11-16T12:26:23.786Z,10.65
2016-11-16T12:27:38.671Z,10.68
2016-11-16T12:28:53.668Z,10.8
2016-11-16T12:30:08.548Z,10.77
2016-11-16T12:31:23.269Z,10.65
2016-11-16T12:33:28.984Z,10.69
2016-11-16T12:34:46.645Z,10.64
2016-11-16T12:40:12.646Z,10.53
2016-11-16T12:41:40.337Z,10.57
2016-11-16T12:42:55.224Z,10.61
2016-11-16T12:44:11.005Z,10.69
2016-11-16T12:45:25.948Z,10.68
2016-11-16T12:46:41.000Z,10.62
2016-11-16T12:48:10.417Z,10.59
2016-11-16T12:49:25.902Z,10.53
2016-11-16T12:50:41.400Z,10.57
2016-11-16T12:51:56.628Z,10.49
2016-11-16T12:53:11.998Z,10.42
2016-11-16T12:54:26.497Z,10.45
2016-11-16T12:55:41.087Z,10.48
2016-11-16T12:56:55.684Z,10.49
2016-11-16T12:58:10.375Z,10.45
2016-11-16T12:59:25.677Z,10.43
2016-11-16T13:00:41.744Z,10.39
2016-11-16T13:01:56.858Z,10.43
2016-11-16T13:03:11.857Z,10.49
2016-11-16T13:04:26.573Z,10.51
2016-11-16T13:08:09.227Z,10.36
2016-11-16T13:09:23.418Z,10.39
2016-11-16T13:13:20.953Z,10.51
2016-11-16T13:14:35.713Z,10.42
2016-11-16T13:15:50.809Z,10.49
2016-11-16T13:17:06.347Z,10.48
2016-11-16T13:18:20.673Z,10.48
2016-11-16T13:19:35.523Z,10.45
2016-11-16T13:21:04.852Z,10.34
2016-11-16T13:26:58.326Z,10.38
2016-11-16T13:28:12.954Z,10.43
2016-11-16T13:29:27.507Z,10.42
2016-11-16T13:30:42.311Z,10.39
2016-11-16T13:31:57.945Z,10.39
2016-11-16T13:33:12.943Z,10.39
2016-11-16T13:34:28.245Z,10.36
2016-11-16T13:35:43.022Z,10.36
2016-11-16T13:37:41.562Z,10.39
2016-11-16T13:38:56.483Z,10.36
2016-11-16T13:40:11.570Z,10.38
2016-11-16T13:41:26.195Z,10.39
2016-11-16T13:42:40.984Z,10.46
2016-11-16T13:43:55.765Z,10.51
2016-11-16T13:45:10.615Z,10.53
2016-11-16T13:46:24.918Z,10.53
2016-11-16T13:47:39.683Z,10.34
2016-11-16T13:48:54.671Z,10.38
2016-11-16T13:50:09.007Z,10.39
2016-11-16T13:51:23.502Z,10.42
2016-11-16T13:52:38.718Z,10.55
2016-11-16T13:53:53.769Z,10.53
2016-11-16T13:55:09.291Z,10.59
2016-11-16T13:56:24.053Z,10.51
2016-11-16T13:57:40.029Z,10.55
2016-11-16T13:58:56.997Z,10.55
2016-11-16T14:00:11.544Z,10.51
2016-11-16T14:01:26.278Z,10.58
2016-11-16T14:02:41.358Z,10.42
2016-11-16T14:03:56.893Z,10.38
2016-11-16T14:05:12.079Z,10.46
2016-11-16T14:06:27.446Z,10.49
2016-11-16T14:07:42.939Z,10.42
2016-11-16T14:08:57.739Z,10.43
2016-11-16T14:10:12.596Z,10.48
2016-11-16T14:11:28.071Z,10.36
2016-11-16T14:12:43.707Z,10.43
2016-11-16T14:13:58.665Z,10.48
2016-11-16T14:15:13.568Z,10.48
2016-11-16T14:16:29.189Z,10.45
2016-11-16T14:17:44.812Z,10.51
2016-11-16T14:18:59.736Z,10.49
2016-11-16T14:20:14.158Z,10.57
2016-11-16T14:21:48.197Z,10.42
2016-11-16T14:23:03.427Z,10.43
2016-11-16T14:24:18.902Z,10.51
2016-11-16T14:25:33.769Z,10.55
2016-11-16T14:26:49.253Z,10.55
2016-11-16T14:28:03.418Z,10.58
2016-11-16T14:29:18.139Z,10.57
2016-11-16T14:30:33.644Z,10.64
2016-11-16T14:31:49.373Z,10.53
2016-11-16T14:33:04.364Z,10.61
2016-11-16T14:34:18.771Z,10.58
2016-11-16T14:35:34.302Z,10.55
2016-11-16T14:36:49.663Z,10.51
2016-11-16T14:38:04.407Z,10.59
2016-11-16T14:39:19.089Z,10.65
2016-11-16T14:40:33.735Z,10.61
2016-11-16T14:41:48.371Z,10.59
2016-11-16T14:43:02.742Z,10.58
2016-11-16T14:44:17.405Z,10.71
2016-11-16T14:45:31.896Z,10.68
2016-11-16T14:46:46.247Z,10.69
2016-11-16T14:48:00.896Z,10.67
2016-11-16T14:49:15.474Z,10.67
2016-11-16T14:50:30.088Z,10.64
2016-11-16T14:51:44.947Z,10.62
2016-11-16T14:52:59.381Z,10.64
2016-11-16T14:54:15.480Z,10.64
2016-11-16T14:55:44.825Z,10.68
2016-11-16T14:57:12.370Z,10.68
2016-11-16T14:58:27.968Z,10.64
2016-11-16T14:59:43.435Z,10.64
2016-11-16T15:00:57.935Z,10.76
2016-11-16T15:02:12.705Z,10.61
2016-11-16T15:03:53.372Z,10.62
2016-11-16T15:05:08.606Z,10.65
2016-11-16T15:06:23.170Z,10.75
2016-11-16T15:07:44.124Z,10.59
2016-11-16T15:08:58.676Z,10.61
2016-11-16T15:15:40.444Z,10.64
2016-11-16T15:17:14.268Z,10.57
2016-11-16T15:18:28.945Z,10.49
2016-11-16T15:23:04.875Z,10.53
2016-11-16T15:24:19.753Z,10.53
2016-11-16T15:25:34.881Z,10.57
2016-11-16T15:26:49.939Z,10.55
2016-11-16T15:28:04.931Z,10.51
2016-11-16T15:29:19.673Z,10.55
2016-11-16T15:30:35.117Z,10.55
2016-11-16T15:31:49.712Z,10.51
2016-11-16T15:33:04.555Z,10.45
2016-11-16T15:34:19.595Z,10.49
2016-11-16T15:35:34.887Z,10.55
2016-11-16T15:36:49.718Z,10.36
2016-11-16T15:38:19.147Z,10.41
2016-11-16T15:39:34.176Z,10.41
2016-11-16T15:40:48.917Z,10.39
2016-11-16T15:42:03.944Z,10.46
2016-11-16T15:43:18.531Z,10.42
2016-11-16T15:44:33.348Z,10.42
2016-11-16T15:45:48.076Z,10.38
2016-11-16T15:47:02.739Z,10.48
2016-11-16T15:48:17.560Z,10.49
2016-11-16T15:49:32.989Z,10.53
2016-11-16T15:50:47.353Z,10.34
2016-11-16T15:52:02.327Z,10.34
2016-11-16T15:53:16.768Z,10.45
2016-11-16T15:54:31.552Z,10.46
2016-11-16T15:55:46.297Z,10.49
2016-11-16T15:57:01.222Z,10.46
2016-11-16T15:58:30.728Z,10.51
2016-11-16T15:59:45.343Z,10.58
2016-11-16T16:00:59.643Z,10.64
2016-11-16T16:02:14.931Z,10.58
2016-11-16T16:03:44.537Z,10.58
2016-11-16T16:04:59.381Z,10.53
2016-11-16T16:06:14.274Z,10.61
2016-11-16T16:07:30.360Z,10.57
2016-11-16T16:08:45.166Z,10.58
2016-11-16T16:10:00.119Z,10.53
2016-11-16T16:11:14.691Z,10.49
2016-11-16T16:12:29.411Z,10.57
2016-11-16T16:13:44.617Z,10.55
2016-11-16T16:14:59.599Z,10.59
2016-11-16T16:16:14.442Z,10.62
2016-11-16T16:17:29.055Z,10.59
2016-11-16T16:18:43.850Z,10.55
2016-11-16T16:19:58.945Z,10.59
2016-11-16T16:21:14.041Z,10.55
2016-11-16T16:22:28.459Z,10.58
2016-11-16T16:25:27.524Z,10.49
2016-11-16T16:26:41.930Z,10.64
2016-11-16T16:27:57.283Z,10.61
2016-11-16T16:29:12.525Z,10.64
2016-11-16T16:30:27.876Z,10.61
2016-11-16T16:31:42.181Z,10.68
2016-11-16T16:32:57.022Z,10.67
2016-11-16T16:34:11.988Z,10.65
2016-11-16T16:35:27.396Z,10.68
2016-11-16T16:36:42.107Z,10.62
2016-11-16T16:37:57.130Z,10.58
2016-11-16T16:39:12.142Z,10.55
2016-11-16T16:40:27.478Z,10.48
2016-11-16T16:41:45.024Z,10.49
2016-11-16T16:42:59.711Z,10.55
2016-11-16T16:44:14.240Z,10.53
2016-11-16T16:45:28.908Z,10.65
2016-11-16T16:46:44.930Z,10.59
2016-11-16T16:47:59.519Z,10.58
2016-11-16T16:49:14.172Z,10.57
2016-11-16T16:50:29.978Z,10.55
2016-11-16T16:51:44.962Z,10.61
2016-11-16T16:52:59.704Z,10.62
2016-11-16T16:54:14.676Z,10.64
2016-11-16T16:55:29.511Z,10.62
2016-11-16T16:56:44.617Z,10.64
2016-11-16T16:58:00.123Z,10.67
2016-11-16T16:59:14.743Z,10.68
2016-11-16T17:00:30.515Z,10.72
2016-11-16T17:01:46.407Z,10.65
2016-11-16T17:03:01.219Z,10.67
2016-11-16T17:04:15.684Z,10.61
2016-11-16T17:05:30.191Z,10.65
2016-11-16T17:06:44.982Z,10.55
2016-11-16T17:08:00.256Z,10.57
2016-11-16T17:09:15.112Z,10.62
2016-11-16T17:10:30.203Z,10.67
2016-11-16T17:11:46.417Z,10.64
2016-11-16T17:13:15.859Z,10.72
2016-11-16T17:14:31.603Z,10.68
2016-11-16T17:15:46.962Z,10.71
2016-11-16T17:17:01.728Z,10.65
2016-11-16T17:18:16.841Z,10.64
2016-11-16T17:19:49.704Z,10.65
2016-11-16T17:21:05.649Z,10.72
2016-11-16T17:22:20.210Z,10.64
2016-11-16T17:23:35.795Z,10.64
2016-11-16T17:24:50.444Z,10.71
2016-11-16T17:26:05.197Z,10.64
2016-11-16T17:27:20.308Z,10.76
2016-11-16T17:28:38.605Z,10.69
2016-11-16T17:29:54.516Z,10.65
2016-11-16T17:31:09.225Z,10.64
2016-11-16T17:32:24.171Z,10.64
2016-11-16T17:33:39.890Z,10.67
2016-11-16T17:35:24.706Z,10.69
2016-11-16T17:36:39.500Z,10.67
2016-11-16T17:37:55.173Z,10.67
2016-11-16T17:39:10.423Z,10.77
2016-11-16T17:40:25.449Z,10.68
2016-11-16T17:41:41.027Z,10.61
2016-11-16T17:42:55.962Z,10.68
2016-11-16T17:44:11.065Z,10.71
2016-11-16T17:45:26.072Z,10.72
2016-11-16T17:46:41.632Z,10.72
2016-11-16T17:47:56.265Z,10.77
2016-11-16T17:49:10.641Z,10.79
2016-11-16T17:50:25.112Z,10.8
2016-11-16T17:51:40.286Z,10.69
2016-11-16T17:52:54.991Z,10.69
2016-11-16T17:54:10.733Z,10.68
2016-11-16T17:55:26.632Z,10.71
2016-11-16T17:56:41.534Z,10.69
2016-11-16T17:57:56.232Z,10.71
2016-11-16T17:59:11.144Z,10.71
2016-11-16T18:00:28.528Z,10.76
2016-11-16T18:01:43.462Z,10.65
2016-11-16T18:02:58.957Z,10.68
2016-11-16T18:04:13.638Z,10.62
2016-11-16T18:05:28.195Z,10.75
2016-11-16T18:06:42.972Z,10.79
2016-11-16T18:07:57.944Z,10.79
2016-11-16T18:09:13.487Z,10.8
2016-11-16T18:10:28.206Z,10.76
2016-11-16T18:11:43.260Z,10.83
2016-11-16T18:12:58.069Z,10.84
2016-11-16T18:14:13.010Z,10.87
2016-11-16T18:15:27.675Z,10.94
2016-11-16T18:16:43.520Z,10.9
2016-11-16T18:17:58.352Z,10.92
2016-11-16T18:19:14.390Z,10.94
2016-11-16T18:20:30.656Z,10.83
2016-11-16T18:21:45.844Z,10.9
2016-11-16T18:23:01.044Z,10.94
2016-11-16T18:24:16.956Z,10.98
2016-11-16T18:25:33.173Z,10.89
2016-11-16T18:26:48.213Z,10.95
2016-11-16T18:28:02.755Z,10.86
2016-11-16T18:29:18.549Z,10.97
2016-11-16T18:30:33.657Z,10.94
2016-11-16T18:31:48.441Z,10.89
2016-11-16T18:33:18.336Z,10.87
2016-11-16T18:34:33.990Z,10.94
2016-11-16T18:35:48.490Z,10.9
2016-11-16T18:37:18.222Z,10.9
2016-11-16T18:38:32.776Z,10.9
2016-11-16T18:40:02.615Z,10.94
2016-11-16T18:41:18.853Z,10.89
2016-11-16T18:42:34.080Z,10.9
2016-11-16T18:43:48.747Z,10.94
2016-11-16T18:45:04.108Z,10.94
2016-11-16T18:46:19.097Z,10.95
2016-11-16T18:47:34.877Z,11.04
2016-11-16T18:48:50.187Z,11
2016-11-16T18:50:07.987Z,11.01
2016-11-16T18:51:23.605Z,10.98
2016-11-16T18:54:07.662Z,11.01
2016-11-16T18:55:22.578Z,11.04
2016-11-16T18:56:38.126Z,11.01
2016-11-16T18:57:55.984Z,10.95
2016-11-16T18:59:10.391Z,10.95
2016-11-16T19:00:25.610Z,11.02
2016-11-16T19:01:57.827Z,11.01
2016-11-16T19:03:13.239Z,11.04
2016-11-16T19:04:28.250Z,11.08